Time;durP1;ratioP1;P1;durP2;ratioP2;P2;SDS_P1;SDS_P2;PMS_P1;PMS_P2;Temp;Humidity;BMP_temperature;BMP_pressure;BME280_temperature;BME280_humidity;BME280_pressure;Samples;Min_cycle;Max_cycle;Signal;HPM_P1;HPM_P2
2022/04/06 00:00:18;;;;;;;0.90;0.90;;;9.40;99.90;;;;;;5033753;28;20667;-66
2022/04/06 00:02:44;;;;;;;0.30;0.30;;;9.50;99.60;;;;;;5034040;28;20184;-67
2022/04/06 00:05:10;;;;;;;0.30;0.30;;;9.50;99.40;;;;;;5033951;28;20209;-66
2022/04/06 00:07:37;;;;;;;0.32;0.32;;;9.40;99.50;;;;;;5033843;28;20543;-66
2022/04/06 00:10:07;;;;;;;0.30;0.30;;;9.50;99.60;;;;;;5033618;28;20201;-66
2022/04/06 00:12:34;;;;;;;0.30;0.30;;;9.60;99.30;;;;;;5033988;28;20165;-66
2022/04/06 00:15:00;;;;;;;1.05;1.05;;;9.70;99.20;;;;;;5033786;28;20240;-66
2022/04/06 00:17:26;;;;;;;0.30;0.30;;;9.70;99.00;;;;;;5033809;28;20172;-66
2022/04/06 00:19:52;;;;;;;0.30;0.30;;;9.80;98.80;;;;;;5033660;28;20203;-66
2022/04/06 00:22:17;;;;;;;0.30;0.30;;;9.70;98.80;;;;;;5033663;28;20559;-66
2022/04/06 00:24:43;;;;;;;0.30;0.30;;;9.80;98.90;;;;;;5033473;28;20217;-66
2022/04/06 00:27:09;;;;;;;0.30;0.30;;;9.70;98.90;;;;;;5033807;28;20172;-66
2022/04/06 00:29:35;;;;;;;0.30;0.30;;;9.70;99.10;;;;;;5033707;28;20599;-66
2022/04/06 00:32:00;;;;;;;0.40;0.40;;;9.70;99.10;;;;;;5033581;28;20413;-66
2022/04/06 00:37:10;;;;;;;0.50;0.50;;;9.60;99.30;;;;;;5033673;28;20707;-66
2022/04/06 00:39:36;;;;;;;0.30;0.30;;;9.70;99.20;;;;;;5033395;28;20213;-66
2022/04/06 00:42:02;;;;;;;0.40;0.40;;;9.70;99.00;;;;;;5033595;28;20230;-66
2022/04/06 00:44:28;;;;;;;0.77;0.77;;;9.70;98.90;;;;;;5032515;28;20250;-66
2022/04/06 00:46:53;;;;;;;0.35;0.35;;;9.70;99.00;;;;;;5033595;28;20327;-66
2022/04/06 00:49:19;;;;;;;0.33;0.33;;;9.80;98.90;;;;;;5033206;28;20692;-66
2022/04/06 00:51:47;;;;;;;0.40;0.40;;;9.80;98.70;;;;;;5033365;28;20165;-66
2022/04/06 00:54:15;;;;;;;0.30;0.30;;;9.80;98.80;;;;;;5033479;28;20187;-66
2022/04/06 00:56:43;;;;;;;0.40;0.40;;;9.70;98.90;;;;;;5033541;28;20176;-66
2022/04/06 00:59:09;;;;;;;0.30;0.30;;;9.70;98.80;;;;;;5033464;28;20228;-66
2022/04/06 01:01:35;;;;;;;0.30;0.30;;;9.70;98.90;;;;;;5033261;28;20177;-66
2022/04/06 01:04:01;;;;;;;0.30;0.30;;;9.80;99.00;;;;;;5033306;28;20665;-66
2022/04/06 01:06:27;;;;;;;0.30;0.30;;;9.80;98.90;;;;;;5033161;28;20837;-66
2022/04/06 01:08:53;;;;;;;0.30;0.30;;;9.70;99.00;;;;;;5032972;28;20488;-66
2022/04/06 01:11:20;;;;;;;0.30;0.30;;;9.80;98.90;;;;;;5033185;28;20540;-66
2022/04/06 01:13:47;;;;;;;0.30;0.30;;;9.80;98.80;;;;;;5033231;28;20168;-66
2022/04/06 01:16:13;;;;;;;0.30;0.30;;;9.80;98.80;;;;;;5033043;28;20185;-66
2022/04/06 01:18:40;;;;;;;0.30;0.30;;;9.90;98.70;;;;;;5033183;28;20173;-66
2022/04/06 01:21:06;;;;;;;0.40;0.40;;;9.90;98.70;;;;;;5032939;28;21004;-66
2022/04/06 01:23:32;;;;;;;0.30;0.30;;;9.80;99.00;;;;;;5033415;28;20181;-66
2022/04/06 01:25:57;;;;;;;0.30;0.30;;;9.80;98.90;;;;;;5033069;28;20181;-66
2022/04/06 01:28:24;;;;;;;0.30;0.30;;;9.80;98.90;;;;;;5032984;28;20180;-66
2022/04/06 01:30:50;;;;;;;0.30;0.30;;;9.70;99.00;;;;;;5033429;28;20167;-66
2022/04/06 01:33:16;;;;;;;0.55;0.55;;;9.60;99.20;;;;;;5033141;28;20250;-66
2022/04/06 01:35:42;;;;;;;0.30;0.30;;;9.70;99.40;;;;;;5032949;28;20209;-66
2022/04/06 01:38:08;;;;;;;0.40;0.40;;;9.60;99.10;;;;;;5032778;28;20204;-67
2022/04/06 01:40:35;;;;;;;0.30;0.30;;;9.60;99.60;;;;;;5032834;28;20564;-66
2022/04/06 01:43:00;;;;;;;0.30;0.30;;;9.70;99.30;;;;;;5032965;28;20181;-66
2022/04/06 01:45:26;;;;;;;0.30;0.30;;;9.70;99.20;;;;;;5032985;28;20212;-66
2022/04/06 01:47:52;;;;;;;0.40;0.40;;;9.70;99.10;;;;;;5032839;28;20170;-66
2022/04/06 01:53:03;;;;;;;0.30;0.30;;;9.90;98.80;;;;;;5033267;28;20184;-66
2022/04/06 01:55:29;;;;;;;0.30;0.30;;;9.80;98.90;;;;;;5034078;28;20659;-66
2022/04/06 01:57:56;;;;;;;0.30;0.30;;;9.80;99.00;;;;;;5036496;28;20179;-66
2022/04/06 02:00:22;;;;;;;0.40;0.40;;;9.90;99.00;;;;;;5035935;28;20201;-67
2022/04/06 02:02:50;;;;;;;0.40;0.40;;;9.70;99.00;;;;;;5036423;28;20588;-66
2022/04/06 02:05:17;;;;;;;0.30;0.30;;;9.70;99.20;;;;;;5036288;28;20505;-66
2022/04/06 02:07:43;;;;;;;0.55;0.55;;;9.70;99.20;;;;;;5036030;28;20182;-66
2022/04/06 02:10:10;;;;;;;0.30;0.30;;;9.80;99.20;;;;;;5035847;28;20197;-66
2022/04/06 02:12:37;;;;;;;0.95;0.95;;;9.80;99.20;;;;;;5034884;28;20177;-66
2022/04/06 02:15:03;;;;;;;1.38;1.38;;;9.80;99.10;;;;;;5036063;28;20170;-66
2022/04/06 02:17:29;;;;;;;0.40;0.40;;;9.90;99.10;;;;;;5035890;28;20176;-66
2022/04/06 02:19:55;;;;;;;0.30;0.30;;;9.80;99.10;;;;;;5036120;28;20203;-66
2022/04/06 02:22:21;;;;;;;0.30;0.30;;;9.70;99.30;;;;;;5036006;28;20427;-66
2022/04/06 02:24:47;;;;;;;0.50;0.50;;;9.70;99.50;;;;;;5035828;28;20203;-66
2022/04/06 02:27:12;;;;;;;0.50;0.50;;;9.70;99.40;;;;;;5035965;28;20404;-66
2022/04/06 02:29:40;;;;;;;0.30;0.30;;;9.60;99.70;;;;;;5035348;28;20197;-66
2022/04/06 02:32:07;;;;;;;0.30;0.30;;;9.50;99.90;;;;;;5051000;28;20174;-66
2022/04/06 02:34:33;;;;;;;0.30;0.30;;;9.50;99.90;;;;;;5035614;28;20200;-66
2022/04/06 02:36:59;;;;;;;0.40;0.40;;;9.50;99.90;;;;;;5036092;28;20219;-66
2022/04/06 02:39:25;;;;;;;0.30;0.30;;;9.40;99.90;;;;;;5035430;28;20201;-66
2022/04/06 02:41:51;;;;;;;1.73;1.63;;;9.50;99.90;;;;;;5035656;28;20185;-66
2022/04/06 02:44:17;;;;;;;0.30;0.30;;;9.70;99.90;;;;;;5035531;28;20482;-66
2022/04/06 02:46:45;;;;;;;1.17;1.17;;;9.80;99.60;;;;;;5035338;28;20404;-66
2022/04/06 02:49:11;;;;;;;0.50;0.50;;;9.90;99.60;;;;;;5035361;28;20844;-66
2022/04/06 02:51:36;;;;;;;0.30;0.30;;;9.80;99.30;;;;;;5035362;28;20168;-66
2022/04/06 02:54:02;;;;;;;0.30;0.30;;;9.60;99.60;;;;;;5035350;28;20223;-67
2022/04/06 02:56:28;;;;;;;0.30;0.30;;;9.40;99.90;;;;;;5035422;28;20173;-66
2022/04/06 02:58:54;;;;;;;0.30;0.30;;;9.30;99.90;;;;;;5035163;28;20328;-66
2022/04/06 03:01:20;;;;;;;0.30;0.30;;;9.50;99.90;;;;;;5050438;28;20647;-66
2022/04/06 03:03:46;;;;;;;0.32;0.32;;;9.40;99.90;;;;;;5035015;28;20200;-66
2022/04/06 03:06:11;;;;;;;0.30;0.30;;;9.50;99.90;;;;;;5034883;28;20169;-66
2022/04/06 03:08:37;;;;;;;0.30;0.30;;;9.70;99.90;;;;;;5034593;28;20170;-66
2022/04/06 03:11:03;;;;;;;0.30;0.30;;;9.60;99.90;;;;;;5034829;28;20628;-66
2022/04/06 03:13:29;;;;;;;0.30;0.30;;;9.70;99.90;;;;;;5034649;28;20168;-66
2022/04/06 03:15:55;;;;;;;0.30;0.30;;;9.70;99.90;;;;;;5034845;28;20405;-66
2022/04/06 03:18:21;;;;;;;0.30;0.30;;;9.60;99.90;;;;;;5034953;28;20447;-66
2022/04/06 03:20:47;;;;;;;0.35;0.35;;;9.80;99.90;;;;;;5034326;28;20509;-67
2022/04/06 03:23:15;;;;;;;0.30;0.30;;;9.80;99.90;;;;;;5034616;28;20215;-66
2022/04/06 03:25:41;;;;;;;0.30;0.30;;;9.60;99.90;;;;;;5050083;28;20694;-67
2022/04/06 03:28:06;;;;;;;0.70;0.70;;;9.80;99.90;;;;;;5034634;28;20189;-66
2022/04/06 03:30:32;;;;;;;0.30;0.30;;;9.90;99.90;;;;;;5034213;28;20475;-66
2022/04/06 03:32:58;;;;;;;0.30;0.30;;;10.00;99.40;;;;;;5034352;28;20179;-66
2022/04/06 03:35:23;;;;;;;0.30;0.30;;;10.10;99.10;;;;;;5034567;28;20646;-66
2022/04/06 03:37:51;;;;;;;0.30;0.30;;;10.10;99.00;;;;;;5034539;28;20212;-67
2022/04/06 03:40:17;;;;;;;0.50;0.50;;;10.00;99.20;;;;;;5034130;28;20216;-66
2022/04/06 03:42:42;;;;;;;0.30;0.30;;;10.00;99.20;;;;;;5034252;28;20174;-66
2022/04/06 03:45:09;;;;;;;0.33;0.33;;;10.00;99.10;;;;;;5034212;28;20335;-66
2022/04/06 03:47:36;;;;;;;0.30;0.30;;;10.00;98.90;;;;;;5034574;28;20173;-66
2022/04/06 03:50:03;;;;;;;0.40;0.40;;;10.00;98.90;;;;;;5033968;28;20203;-66
2022/04/06 03:52:29;;;;;;;0.30;0.30;;;10.00;99.10;;;;;;5034177;28;20172;-66
2022/04/06 03:54:55;;;;;;;0.30;0.30;;;9.80;99.80;;;;;;5034219;28;20200;-66
2022/04/06 03:57:21;;;;;;;1.15;1.15;;;9.70;99.90;;;;;;5032952;28;20193;-66
2022/04/06 03:59:47;;;;;;;0.30;0.30;;;9.60;99.90;;;;;;5033812;28;20202;-66
2022/04/06 04:02:12;;;;;;;0.30;0.30;;;9.70;99.90;;;;;;5034302;28;20177;-66
2022/04/06 04:04:38;;;;;;;2.57;0.87;;;9.70;99.90;;;;;;5034234;28;20225;-66
2022/04/06 04:07:06;;;;;;;0.30;0.30;;;9.60;99.90;;;;;;5034079;28;20256;-66
2022/04/06 04:09:33;;;;;;;0.30;0.30;;;9.70;99.90;;;;;;5033710;28;20279;-66
2022/04/06 04:11:59;;;;;;;0.40;0.40;;;9.90;99.80;;;;;;5034034;28;20180;-66
2022/04/06 04:14:25;;;;;;;0.30;0.30;;;9.90;99.60;;;;;;5034024;28;20180;-66
2022/04/06 04:16:51;;;;;;;0.40;0.40;;;9.90;99.50;;;;;;5033803;28;20465;-67
2022/04/06 04:19:17;;;;;;;0.30;0.30;;;9.90;99.40;;;;;;5033464;28;20456;-66
2022/04/06 04:21:43;;;;;;;0.30;0.30;;;9.90;99.50;;;;;;5033627;28;20848;-66
2022/04/06 04:24:09;;;;;;;0.45;0.45;;;10.00;98.90;;;;;;5033648;28;20531;-66
2022/04/06 04:26:36;;;;;;;0.30;0.30;;;9.90;99.50;;;;;;5033593;28;20667;-66
2022/04/06 04:29:03;;;;;;;0.30;0.30;;;10.00;98.80;;;;;;5033192;28;20965;-66
2022/04/06 04:31:29;;;;;;;0.30;0.30;;;9.90;99.30;;;;;;5033607;28;20668;-66
2022/04/06 04:33:56;;;;;;;0.30;0.30;;;9.70;99.60;;;;;;5033891;28;20178;-66
2022/04/06 04:36:21;;;;;;;0.30;0.30;;;9.60;99.90;;;;;;5033634;28;20165;-66
2022/04/06 04:38:47;;;;;;;0.30;0.30;;;9.70;99.90;;;;;;5033560;28;20199;-66
2022/04/06 04:41:13;;;;;;;0.30;0.30;;;9.60;99.90;;;;;;5033307;28;20186;-66
2022/04/06 04:43:39;;;;;;;0.30;0.30;;;9.80;99.90;;;;;;5033591;28;20415;-66
2022/04/06 04:46:05;;;;;;;0.30;0.30;;;9.90;99.70;;;;;;5033447;28;20528;-66
2022/04/06 04:48:31;;;;;;;0.40;0.40;;;9.90;99.40;;;;;;5033391;28;20178;-66
2022/04/06 04:50:57;;;;;;;0.30;0.30;;;10.00;98.90;;;;;;5033380;28;20398;-66
2022/04/06 04:53:23;;;;;;;0.40;0.40;;;10.00;98.90;;;;;;5033686;28;20180;-66
2022/04/06 04:55:49;;;;;;;0.30;0.30;;;10.00;99.00;;;;;;5033279;28;20184;-66
2022/04/06 04:58:15;;;;;;;0.30;0.30;;;9.90;99.40;;;;;;5033460;28;20176;-66
2022/04/06 05:00:41;;;;;;;0.30;0.30;;;9.70;99.90;;;;;;5033144;28;20431;-66
2022/04/06 05:03:08;;;;;;;0.30;0.30;;;9.40;99.90;;;;;;5033429;28;20176;-66
2022/04/06 05:05:34;;;;;;;0.30;0.30;;;9.30;99.90;;;;;;5033348;28;20482;-66
2022/04/06 05:07:59;;;;;;;0.33;0.33;;;9.50;99.90;;;;;;5033331;28;20208;-66
2022/04/06 05:10:26;;;;;;;0.30;0.30;;;9.70;99.90;;;;;;5048321;28;20230;-66
2022/04/06 05:12:52;;;;;;;0.60;0.60;;;9.80;99.90;;;;;;5033187;28;20212;-66
2022/04/06 05:15:18;;;;;;;0.30;0.30;;;9.70;99.90;;;;;;5033266;28;20186;-66
2022/04/06 05:17:44;;;;;;;0.30;0.30;;;9.60;99.90;;;;;;5033499;28;20178;-66
2022/04/06 05:20:11;;;;;;;0.30;0.30;;;9.70;99.90;;;;;;5032840;28;20216;-66
2022/04/06 05:22:37;;;;;;;0.30;0.30;;;9.80;99.90;;;;;;5032915;28;20196;-66
2022/04/06 05:25:04;;;;;;;0.30;0.30;;;9.90;99.90;;;;;;5032972;28;20213;-66
2022/04/06 05:27:52;;;;;;;0.30;0.30;;;9.90;99.90;;;;;;5033059;28;20271;-66
2022/04/06 05:30:20;;;;;;;0.30;0.30;;;9.80;99.90;;;;;;5033910;28;20236;-66
2022/04/06 05:32:48;;;;;;;0.30;0.30;;;9.90;99.90;;;;;;5052252;28;20710;-66
2022/04/06 05:35:14;;;;;;;0.30;0.30;;;10.00;99.40;;;;;;5037120;28;20185;-66
2022/04/06 05:37:41;;;;;;;0.30;0.30;;;10.00;99.40;;;;;;5036714;28;20180;-66
2022/04/06 05:40:08;;;;;;;0.30;0.30;;;9.90;99.90;;;;;;5036488;28;20228;-66
2022/04/06 05:42:34;;;;;;;0.30;0.30;;;9.90;99.90;;;;;;5036809;28;20580;-66
2022/04/06 05:45:00;;;;;;;0.30;0.30;;;9.90;99.90;;;;;;5035503;28;20208;-66
2022/04/06 05:47:26;;;;;;;0.30;0.30;;;10.00;99.50;;;;;;5035294;28;20188;-66
2022/04/06 05:49:52;;;;;;;0.30;0.30;;;9.90;99.90;;;;;;5034868;28;20428;-66
2022/04/06 05:52:18;;;;;;;0.30;0.30;;;9.80;99.90;;;;;;5036458;28;20406;-66
2022/04/06 05:54:43;;;;;;;1.13;1.03;;;10.00;99.70;;;;;;5036429;28;20769;-66
2022/04/06 05:57:09;;;;;;;0.30;0.30;;;10.10;99.50;;;;;;5036508;28;20180;-66
2022/04/06 05:59:36;;;;;;;0.30;0.30;;;10.10;99.30;;;;;;5036290;28;20192;-66
2022/04/06 06:02:06;;;;;;;0.30;0.30;;;10.20;99.10;;;;;;5036320;28;20174;-66
2022/04/06 06:04:33;;;;;;;0.30;0.30;;;10.20;98.90;;;;;;5035139;28;20212;-67
2022/04/06 06:06:59;;;;;;;0.30;0.30;;;10.20;98.70;;;;;;5035978;28;20247;-66
2022/04/06 06:09:25;;;;;;;0.30;0.30;;;10.00;99.10;;;;;;5036001;28;20197;-66
2022/04/06 06:11:50;;;;;;;0.30;0.30;;;10.00;99.50;;;;;;5036005;28;20173;-66
2022/04/06 06:14:16;;;;;;;0.30;0.30;;;10.00;99.60;;;;;;5036218;28;20404;-66
2022/04/06 06:16:44;;;;;;;0.30;0.30;;;10.00;99.50;;;;;;5033397;28;20172;-65
2022/04/06 06:19:11;;;;;;;0.30;0.30;;;10.00;99.40;;;;;;5033878;28;20193;-65
2022/04/06 06:21:36;;;;;;;0.30;0.30;;;10.00;99.90;;;;;;5034585;28;20208;-65
2022/04/06 06:24:05;;;;;;;0.30;0.30;;;10.10;99.60;;;;;;5033889;28;20190;-65
2022/04/06 06:26:32;;;;;;;0.30;0.30;;;10.10;99.50;;;;;;5035856;28;20162;-65
2022/04/06 06:28:59;;;;;;;0.30;0.30;;;10.10;99.60;;;;;;5035547;28;20230;-65
2022/04/06 06:31:25;;;;;;;0.30;0.30;;;9.90;99.90;;;;;;5035660;28;20232;-65
2022/04/06 06:33:51;;;;;;;0.30;0.30;;;9.60;99.90;;;;;;5035678;28;20170;-65
2022/04/06 06:36:17;;;;;;;0.30;0.30;;;9.60;99.90;;;;;;5034492;28;20187;-65
2022/04/06 06:38:42;;;;;;;0.30;0.30;;;9.70;99.90;;;;;;5034995;28;20280;-65
2022/04/06 06:41:08;;;;;;;0.30;0.30;;;9.70;99.90;;;;;;5034886;28;20328;-65
2022/04/06 06:43:34;;;;;;;0.30;0.30;;;9.70;99.90;;;;;;5032796;28;20190;-65
2022/04/06 06:45:59;;;;;;;0.30;0.30;;;9.70;99.90;;;;;;5035601;28;20170;-65
2022/04/06 06:48:25;;;;;;;0.30;0.30;;;9.90;99.90;;;;;;5035568;28;20257;-65
2022/04/06 06:50:50;;;;;;;0.30;0.30;;;10.00;99.90;;;;;;5035456;28;20628;-65
2022/04/06 06:53:16;;;;;;;0.30;0.30;;;10.10;99.90;;;;;;5035599;28;20668;-65
2022/04/06 06:55:42;;;;;;;0.30;0.30;;;10.00;99.70;;;;;;5035206;28;20174;-65
2022/04/06 06:58:07;;;;;;;0.30;0.30;;;9.80;99.90;;;;;;5035587;28;20178;-66
2022/04/06 07:00:33;;;;;;;0.30;0.30;;;9.80;99.90;;;;;;5034960;28;20355;-65
2022/04/06 07:02:59;;;;;;;0.30;0.30;;;9.80;99.90;;;;;;5035049;28;20178;-65
2022/04/06 07:05:25;;;;;;;0.30;0.30;;;9.60;99.90;;;;;;5050247;28;20213;-65
2022/04/06 07:07:56;;;;;;;0.30;0.30;;;9.40;99.90;;;;;;5035237;28;20174;-65
2022/04/06 07:10:23;;;;;;;0.30;0.30;;;9.50;99.90;;;;;;5034660;28;20432;-65
2022/04/06 07:12:50;;;;;;;1.05;0.60;;;9.60;99.90;;;;;;5035020;28;20548;-65
2022/04/06 07:15:15;;;;;;;0.30;0.30;;;9.90;99.90;;;;;;5034870;28;20262;-65
2022/04/06 07:17:41;;;;;;;0.30;0.30;;;9.80;99.90;;;;;;5034861;28;20193;-65
2022/04/06 07:20:07;;;;;;;0.30;0.30;;;9.90;99.90;;;;;;5034665;28;20198;-65
2022/04/06 07:22:33;;;;;;;0.30;0.30;;;10.10;99.90;;;;;;5034705;28;20201;-65
2022/04/06 07:24:59;;;;;;;0.30;0.30;;;10.20;99.90;;;;;;5034787;28;20212;-65
2022/04/06 07:27:24;;;;;;;0.40;0.40;;;10.10;99.90;;;;;;5033800;28;20414;-65
2022/04/06 07:29:53;;;;;;;0.30;0.30;;;10.20;99.60;;;;;;5033355;28;20206;-65
2022/04/06 07:32:19;;;;;;;0.40;0.40;;;10.30;99.90;;;;;;5034922;28;20171;-65
2022/04/06 07:34:45;;;;;;;0.30;0.30;;;10.30;99.50;;;;;;5034830;28;20571;-65
2022/04/06 07:37:10;;;;;;;0.30;0.30;;;10.10;99.60;;;;;;5034546;28;20206;-65
2022/04/06 07:39:36;;;;;;;0.30;0.30;;;9.60;99.90;;;;;;5034286;28;20241;-64
2022/04/06 07:42:03;;;;;;;0.30;0.30;;;9.70;99.90;;;;;;5034516;28;20180;-65
2022/04/06 07:44:28;;;;;;;0.30;0.30;;;10.00;99.90;;;;;;5034172;28;20699;-65
2022/04/06 07:46:54;;;;;;;0.40;0.40;;;10.40;99.60;;;;;;5034455;28;20191;-64
2022/04/06 07:49:20;;;;;;;0.30;0.30;;;10.70;99.10;;;;;;5033182;28;20197;-64
2022/04/06 07:51:47;;;;;;;0.30;0.30;;;10.90;98.80;;;;;;5033362;28;20614;-64
2022/04/06 07:54:13;;;;;;;0.30;0.30;;;11.10;98.50;;;;;;5033899;28;20181;-65
2022/04/06 07:56:39;;;;;;;0.30;0.30;;;11.20;97.90;;;;;;5034026;28;20664;-65
2022/04/06 07:59:05;;;;;;;0.30;0.30;;;11.20;97.50;;;;;;5033838;28;20432;-65
2022/04/06 08:01:31;;;;;;;0.30;0.30;;;11.20;97.60;;;;;;5034302;28;20578;-65
2022/04/06 08:03:56;;;;;;;0.30;0.30;;;11.20;97.50;;;;;;5033966;28;20450;-64
2022/04/06 08:06:24;;;;;;;0.30;0.30;;;11.30;97.70;;;;;;5034246;28;20405;-64
2022/04/06 08:08:51;;;;;;;0.30;0.30;;;11.30;97.60;;;;;;5033983;28;20194;-65
2022/04/06 08:11:18;;;;;;;0.30;0.30;;;11.30;97.80;;;;;;5033672;28;20173;-64
2022/04/06 08:13:43;;;;;;;0.40;0.40;;;11.00;97.60;;;;;;5034029;28;20178;-65
2022/04/06 08:16:09;;;;;;;0.30;0.30;;;10.80;98.30;;;;;;5033889;28;20170;-64
2022/04/06 08:18:35;;;;;;;0.30;0.30;;;11.00;98.20;;;;;;5033742;28;20257;-64
2022/04/06 08:21:02;;;;;;;0.30;0.30;;;11.20;98.00;;;;;;5033511;28;20198;-65
2022/04/06 08:23:27;;;;;;;0.30;0.30;;;11.30;97.60;;;;;;5033911;28;20241;-65
2022/04/06 08:25:53;;;;;;;0.30;0.30;;;11.40;97.70;;;;;;5033716;28;20210;-65
2022/04/06 08:28:19;;;;;;;0.30;0.30;;;11.40;97.50;;;;;;5033731;28;20170;-65
2022/04/06 08:30:47;;;;;;;0.30;0.30;;;11.20;97.60;;;;;;5033204;28;20424;-65
2022/04/06 08:33:13;;;;;;;0.30;0.30;;;10.90;97.40;;;;;;5033810;28;20600;-65
2022/04/06 08:35:40;;;;;;;0.30;0.30;;;11.00;97.70;;;;;;5033905;28;20580;-65
2022/04/06 08:38:07;;;;;;;0.47;0.47;;;11.10;97.90;;;;;;5033538;28;20174;-65
2022/04/06 08:40:33;;;;;;;0.40;0.40;;;11.10;98.20;;;;;;5033225;28;20197;-65
2022/04/06 08:43:00;;;;;;;0.30;0.30;;;11.20;97.80;;;;;;5033305;28;20171;-65
2022/04/06 08:45:26;;;;;;;0.30;0.30;;;11.20;97.50;;;;;;5032741;28;20198;-65
2022/04/06 08:47:53;;;;;;;0.30;0.30;;;11.00;97.80;;;;;;5031987;28;20182;-65
2022/04/06 08:50:20;;;;;;;0.30;0.30;;;10.90;98.40;;;;;;5033197;28;20186;-66
2022/04/06 08:52:47;;;;;;;0.30;0.30;;;10.80;98.10;;;;;;5034000;28;20512;-66
2022/04/06 08:55:13;;;;;;;0.40;0.40;;;10.90;97.80;;;;;;5033508;28;20525;-66
2022/04/06 08:57:40;;;;;;;0.30;0.30;;;11.10;98.00;;;;;;5033666;28;20183;-65
2022/04/06 09:00:10;;;;;;;0.30;0.30;;;11.40;97.70;;;;;;5033080;28;20229;-67
2022/04/06 09:02:35;;;;;;;0.38;0.38;;;11.40;97.50;;;;;;5031441;28;20185;-65
2022/04/06 09:05:03;;;;;;;0.30;0.30;;;11.50;97.50;;;;;;5034467;28;20605;-68
2022/04/06 09:07:28;;;;;;;0.30;0.30;;;11.60;97.20;;;;;;5036830;28;20593;-70
2022/04/06 09:09:55;;;;;;;0.30;0.30;;;11.70;96.60;;;;;;5033414;28;20207;-70
2022/04/06 09:12:24;;;;;;;0.30;0.30;;;11.40;97.20;;;;;;5036864;28;20173;-71
2022/04/06 09:15:12;;;;;;;0.30;0.30;;;11.50;97.20;;;;;;5035772;28;20537;-71
2022/04/06 09:17:46;;;;;;;0.30;0.30;;;11.70;97.10;;;;;;5036023;28;20537;-71
2022/04/06 09:20:13;;;;;;;0.30;0.30;;;11.80;96.50;;;;;;5035217;28;20206;-71
2022/04/06 09:22:40;;;;;;;0.30;0.30;;;11.90;96.10;;;;;;5036619;28;20190;-69
2022/04/06 09:25:06;;;;;;;0.30;0.30;;;12.00;96.00;;;;;;5033229;28;20210;-66
2022/04/06 09:27:32;;;;;;;0.30;0.30;;;12.00;96.00;;;;;;5036447;28;20221;-66
2022/04/06 09:30:08;;;;;;;0.30;0.30;;;12.10;96.10;;;;;;5035738;28;20203;-66
2022/04/06 09:32:34;;;;;;;0.30;0.30;;;12.30;96.10;;;;;;5034891;28;20177;-71
2022/04/06 09:35:00;;;;;;;0.30;0.30;;;12.30;95.60;;;;;;5035120;28;20479;-66
2022/04/06 09:37:34;;;;;;;0.30;0.30;;;12.20;95.60;;;;;;5034397;28;20171;-66
2022/04/06 09:40:08;;;;;;;0.30;0.30;;;12.20;95.50;;;;;;5033561;28;20228;-66
2022/04/06 09:42:34;;;;;;;0.30;0.30;;;12.10;95.90;;;;;;5035180;28;20182;-66
2022/04/06 09:47:58;;;;;;;0.30;0.30;;;12.00;96.10;;;;;;5035462;28;20205;-66
2022/04/06 09:50:29;;;;;;;0.30;0.30;;;12.20;96.10;;;;;;5036000;28;20183;-66
2022/04/06 09:53:00;;;;;;;0.30;0.30;;;12.20;96.00;;;;;;5036665;28;20217;-66
2022/04/06 09:55:26;;;;;;;0.30;0.30;;;12.50;96.00;;;;;;5036316;28;20175;-66
2022/04/06 09:57:52;;;;;;;0.30;0.30;;;12.50;95.60;;;;;;5036537;28;20206;-66
2022/04/06 10:00:21;;;;;;;0.30;0.30;;;12.60;95.30;;;;;;5033951;28;20187;-66
2022/04/06 10:03:07;;;;;;;0.30;0.30;;;12.40;95.00;;;;;;5036572;28;20179;-66
2022/04/06 10:05:34;;;;;;;0.30;0.30;;;12.00;95.30;;;;;;5035643;28;20194;-66
2022/04/06 10:08:01;;;;;;;0.30;0.30;;;12.10;96.50;;;;;;5034553;28;20167;-66
2022/04/06 10:10:28;;;;;;;0.30;0.30;;;12.20;96.30;;;;;;5035843;28;20187;-66
2022/04/06 10:12:56;;;;;;;0.52;0.52;;;12.50;95.50;;;;;;5036275;28;20203;-66
2022/04/06 10:15:24;;;;;;;0.30;0.30;;;12.60;95.80;;;;;;5036082;28;20171;-66
2022/04/06 10:17:50;;;;;;;0.30;0.30;;;12.50;94.70;;;;;;5035766;28;20208;-66
2022/04/06 10:20:29;;;;;;;0.30;0.30;;;12.40;95.30;;;;;;5035756;28;20187;-66
2022/04/06 10:23:20;;;;;;;0.30;0.30;;;12.60;95.60;;;;;;5035821;28;20206;-66
2022/04/06 10:25:54;;;;;;;0.30;0.30;;;12.70;95.10;;;;;;5035847;28;20733;-66
2022/04/06 10:28:22;;;;;;;0.30;0.30;;;12.60;95.20;;;;;;5035958;28;20171;-66
2022/04/06 10:31:12;;;;;;;0.40;0.40;;;12.60;95.30;;;;;;5035338;28;20213;-66
2022/04/06 10:33:39;;;;;;;1.67;1.58;;;12.70;95.10;;;;;;5036008;28;20163;-66
2022/04/06 10:36:17;;;;;;;0.30;0.30;;;12.80;94.90;;;;;;5035992;28;20697;-66
2022/04/06 10:39:08;;;;;;;0.30;0.30;;;13.00;94.50;;;;;;5035780;28;20221;-66
2022/04/06 10:41:39;;;;;;;1.40;1.30;;;12.80;94.30;;;;;;5035506;28;20173;-66
2022/04/06 10:44:05;;;;;;;0.30;0.30;;;12.90;94.60;;;;;;5035491;28;20558;-66
2022/04/06 10:46:33;;;;;;;0.30;0.30;;;12.80;94.00;;;;;;5035289;28;20177;-66
2022/04/06 10:49:12;;;;;;;0.30;0.30;;;12.60;94.50;;;;;;5035280;28;20608;-66
2022/04/06 10:51:45;;;;;;;0.30;0.30;;;12.50;95.20;;;;;;5035426;28;20266;-66
2022/04/06 10:54:14;;;;;;;0.30;0.30;;;12.60;95.90;;;;;;5035160;28;20578;-66
2022/04/06 10:56:48;;;;;;;2.35;1.38;;;12.70;94.80;;;;;;5035291;28;20174;-66
2022/04/06 10:59:19;;;;;;;0.50;0.50;;;12.90;94.70;;;;;;5035155;28;20273;-66
2022/04/06 11:01:48;;;;;;;0.30;0.30;;;13.00;94.20;;;;;;5035570;28;20189;-66
2022/04/06 11:04:20;;;;;;;0.30;0.30;;;13.20;94.80;;;;;;5035176;28;20201;-66
2022/04/06 11:06:59;;;;;;;0.30;0.30;;;13.30;93.70;;;;;;5035090;28;20174;-66
2022/04/06 11:12:26;;;;;;;0.30;0.30;;;13.40;93.50;;;;;;5035422;28;20504;-66
2022/04/06 11:15:00;;;;;;;0.30;0.30;;;13.40;92.80;;;;;;5033232;28;20186;-67
2022/04/06 11:17:34;;;;;;;0.40;0.40;;;13.60;93.00;;;;;;5034867;28;20523;-66
2022/04/06 11:20:14;;;;;;;0.30;0.30;;;13.90;92.30;;;;;;5034453;28;20197;-66
2022/04/06 11:22:57;;;;;;;0.30;0.30;;;13.90;91.80;;;;;;5035500;28;20201;-67
2022/04/06 11:25:29;;;;;;;0.30;0.30;;;13.90;91.70;;;;;;5034029;28;20453;-68
2022/04/06 11:28:08;;;;;;;0.30;0.30;;;13.80;92.70;;;;;;5032930;28;20863;-68
2022/04/06 11:30:34;;;;;;;0.30;0.30;;;13.90;92.60;;;;;;5031893;28;20468;-66
2022/04/06 11:33:04;;;;;;;0.30;0.30;;;13.90;92.90;;;;;;5032411;28;20780;-67
2022/04/06 11:35:35;;;;;;;0.30;0.30;;;14.20;91.80;;;;;;5033738;28;20484;-66
2022/04/06 11:38:03;;;;;;;0.30;0.30;;;14.10;91.70;;;;;;5033566;28;20873;-66
2022/04/06 11:40:30;;;;;;;0.30;0.30;;;14.20;92.30;;;;;;5030317;28;20851;-68
2022/04/06 11:42:57;;;;;;;0.30;0.30;;;14.50;92.20;;;;;;5033941;28;20493;-66
2022/04/06 11:45:28;;;;;;;0.30;0.30;;;14.70;90.90;;;;;;5034025;28;20443;-66
2022/04/06 11:47:59;;;;;;;0.30;0.30;;;15.00;90.30;;;;;;5033874;28;20520;-66
2022/04/06 11:50:29;;;;;;;0.30;0.30;;;15.30;88.60;;;;;;5034144;28;20841;-73
2022/04/06 11:52:55;;;;;;;0.30;0.30;;;15.50;88.00;;;;;;5034081;28;20781;-67
2022/04/06 11:55:20;;;;;;;0.30;0.30;;;15.60;89.80;;;;;;5032275;28;20412;-66
2022/04/06 11:57:46;;;;;;;0.30;0.30;;;15.50;88.20;;;;;;5034700;28;20177;-66
2022/04/06 12:00:13;;;;;;;0.30;0.30;;;15.60;88.60;;;;;;5034242;28;20223;-66
2022/04/06 12:02:56;;;;;;;0.30;0.30;;;15.50;86.30;;;;;;5033958;28;20166;-66
2022/04/06 12:05:25;;;;;;;0.30;0.30;;;15.70;88.10;;;;;;5033243;28;20499;-66
2022/04/06 12:08:15;;;;;;;0.30;0.30;;;15.90;86.60;;;;;;5033606;28;20403;-66
2022/04/06 12:10:52;;;;;;;0.30;0.30;;;16.20;86.20;;;;;;5033305;28;20429;-66
2022/04/06 12:13:19;;;;;;;0.30;0.30;;;16.30;85.80;;;;;;5032625;28;20924;-66
2022/04/06 12:15:48;;;;;;;0.40;0.40;;;16.30;85.40;;;;;;5034019;28;20967;-66
2022/04/06 12:18:18;;;;;;;0.30;0.30;;;16.50;83.90;;;;;;5033859;28;20939;-65
2022/04/06 12:20:46;;;;;;;0.30;0.30;;;16.60;83.40;;;;;;5033481;28;20429;-66
2022/04/06 12:23:12;;;;;;;0.30;0.30;;;16.60;85.60;;;;;;5033907;28;20413;-66
2022/04/06 12:25:37;;;;;;;0.30;0.30;;;16.60;83.00;;;;;;5033788;28;20526;-66
2022/04/06 12:28:23;;;;;;;0.30;0.30;;;16.90;84.90;;;;;;5033846;28;20399;-65
2022/04/06 12:30:54;;;;;;;0.30;0.30;;;17.10;82.60;;;;;;5033431;28;20191;-66
2022/04/06 12:33:39;;;;;;;0.30;0.30;;;17.20;81.80;;;;;;5033872;28;20426;-66
2022/04/06 12:36:16;;;;;;;0.30;0.30;;;17.10;82.40;;;;;;5033740;28;20490;-66
2022/04/06 12:38:55;;;;;;;0.30;0.30;;;17.10;81.80;;;;;;5033423;28;20739;-66
2022/04/06 12:41:23;;;;;;;0.30;0.30;;;17.00;82.90;;;;;;5033713;28;20731;-66
2022/04/06 12:43:49;;;;;;;0.30;0.30;;;16.80;82.80;;;;;;5033316;28;20413;-66
2022/04/06 12:46:35;;;;;;;0.30;0.30;;;16.50;81.90;;;;;;5033569;28;20445;-66
2022/04/06 12:49:37;;;;;;;0.30;0.30;;;16.20;81.40;;;;;;5033413;28;20429;-65
2022/04/06 12:52:05;;;;;;;0.30;0.30;;;16.30;83.60;;;;;;5033629;28;20545;-66
2022/04/06 12:54:32;;;;;;;0.40;0.40;;;16.70;82.70;;;;;;5033416;28;20500;-65
2022/04/06 12:57:10;;;;;;;0.30;0.30;;;16.90;81.60;;;;;;5033345;28;20424;-66
2022/04/06 12:59:42;;;;;;;0.40;0.40;;;17.10;80.90;;;;;;5033251;28;20442;-66
2022/04/06 13:02:22;;;;;;;0.30;0.30;;;17.00;80.50;;;;;;5033364;28;20397;-66
2022/04/06 13:04:48;;;;;;;0.30;0.30;;;17.00;80.40;;;;;;5034056;28;20797;-66